createdAt,value
2023-03-12T00:00:18.058Z,-2.20
2023-03-12T00:03:08.025Z,-2.10
2023-03-12T00:05:59.121Z,-2.00
2023-03-12T00:08:55.887Z,-2.10
2023-03-12T00:11:45.877Z,-2.10
2023-03-12T00:14:36.555Z,-2.20
2023-03-12T00:17:26.168Z,-2.30
2023-03-12T00:20:16.431Z,-2.30
2023-03-12T00:23:06.101Z,-2.60
2023-03-12T00:26:01.277Z,-2.40
2023-03-12T00:31:52.188Z,-2.40
2023-03-12T00:34:41.808Z,-2.50
2023-03-12T00:37:33.607Z,-2.50
2023-03-12T00:40:23.008Z,-2.30
2023-03-12T00:43:14.629Z,-2.60
2023-03-12T00:46:04.240Z,-2.50
2023-03-12T00:48:54.121Z,-2.40
2023-03-12T00:51:43.770Z,-2.50
2023-03-12T00:54:33.930Z,-2.60
2023-03-12T00:57:23.528Z,-2.50
2023-03-12T01:00:16.027Z,-2.70
2023-03-12T01:03:06.023Z,-2.70
2023-03-12T01:05:56.243Z,-2.60
2023-03-12T01:08:45.814Z,-2.70
2023-03-12T01:11:36.346Z,-2.80
2023-03-12T01:14:27.037Z,-3.10
2023-03-12T01:17:18.094Z,-2.80
2023-03-12T01:20:09.396Z,-2.70
2023-03-12T01:22:59.027Z,-2.80
2023-03-12T01:25:50.353Z,-2.90
2023-03-12T01:28:40.056Z,-2.90
2023-03-12T01:31:29.719Z,-3.10
2023-03-12T01:34:21.208Z,-2.80
2023-03-12T01:37:10.875Z,-3.00
2023-03-12T01:40:01.504Z,-2.90
2023-03-12T01:42:55.055Z,-3.00
2023-03-12T01:46:08.657Z,-2.90
2023-03-12T01:49:03.702Z,-3.00
2023-03-12T01:51:59.171Z,-3.50
2023-03-12T01:54:55.013Z,-3.20
2023-03-12T01:57:50.581Z,-2.90
2023-03-12T02:00:40.236Z,-3.10
2023-03-12T02:03:31.021Z,-3.10
2023-03-12T02:06:23.940Z,-3.20
2023-03-12T02:09:15.988Z,-2.90
2023-03-12T02:12:07.706Z,-2.90
2023-03-12T02:14:40.741Z,-2.40
2023-03-12T02:26:26.981Z,-2.10
2023-03-12T02:29:09.802Z,-1.70
2023-03-12T02:37:49.884Z,-1.60
2023-03-12T02:43:00.533Z,-1.50
2023-03-12T02:45:42.702Z,-1.50
2023-03-12T02:48:21.583Z,-1.50
2023-03-12T02:51:05.488Z,-1.50
2023-03-12T02:53:48.764Z,-1.50
2023-03-12T02:56:20.443Z,-1.50
2023-03-12T02:59:10.731Z,-1.80
2023-03-12T03:02:02.605Z,-1.30
2023-03-12T03:04:52.146Z,-1.20
2023-03-12T03:07:42.187Z,-1.10
2023-03-12T03:10:32.030Z,-0.90
2023-03-12T03:13:23.113Z,-0.90
2023-03-12T03:16:13.836Z,-0.80
2023-03-12T03:19:04.436Z,-0.80
2023-03-12T03:21:53.810Z,-0.70
2023-03-12T03:24:43.627Z,-0.70
2023-03-12T03:27:32.976Z,-0.70
2023-03-12T03:30:24.829Z,-0.60
2023-03-12T03:33:14.746Z,-0.60
2023-03-12T03:36:04.651Z,-0.50
2023-03-12T03:38:54.892Z,-0.60
2023-03-12T03:41:44.507Z,-0.50
2023-03-12T03:44:33.862Z,-0.50
2023-03-12T03:47:25.055Z,-0.50
2023-03-12T03:50:14.688Z,-0.50
2023-03-12T03:53:04.508Z,-0.60
2023-03-12T03:55:54.006Z,-0.50
2023-03-12T03:58:43.442Z,-0.40
2023-03-12T04:01:33.284Z,-0.50
2023-03-12T04:04:24.384Z,-0.40
2023-03-12T04:07:14.310Z,-0.40
2023-03-12T04:10:03.782Z,-0.40
2023-03-12T04:12:54.606Z,-0.30
2023-03-12T04:15:49.365Z,-0.30
2023-03-12T04:18:39.370Z,-0.30
2023-03-12T04:21:30.743Z,-0.30
2023-03-12T04:24:20.747Z,-0.30
2023-03-12T04:27:10.199Z,-0.20
2023-03-12T04:30:00.116Z,-0.20
2023-03-12T04:32:49.529Z,-0.20
2023-03-12T04:35:39.544Z,-0.20
2023-03-12T04:38:30.669Z,-0.20
2023-03-12T04:41:20.513Z,-0.20
2023-03-12T04:44:12.683Z,-0.20
2023-03-12T04:47:02.846Z,-0.20
2023-03-12T04:49:52.353Z,-0.10
2023-03-12T04:52:42.255Z,0.00
2023-03-12T04:55:33.408Z,0.10
2023-03-12T04:58:23.218Z,0.10
2023-03-12T05:01:24.221Z,0.20
2023-03-12T05:04:13.740Z,0.20
2023-03-12T05:07:03.628Z,0.30
2023-03-12T05:09:53.130Z,0.30
2023-03-12T05:12:44.594Z,0.40
2023-03-12T05:15:34.031Z,0.40
2023-03-12T05:18:23.889Z,0.50
2023-03-12T05:21:16.189Z,0.60
2023-03-12T05:24:05.939Z,0.70
2023-03-12T05:26:56.061Z,0.70
2023-03-12T05:29:47.194Z,0.70
2023-03-12T05:32:36.959Z,0.70
2023-03-12T05:35:26.640Z,0.60
2023-03-12T05:38:16.078Z,0.70
2023-03-12T05:41:06.237Z,0.80
2023-03-12T05:43:56.877Z,0.80
2023-03-12T05:46:48.884Z,0.90
2023-03-12T05:49:38.413Z,0.90
2023-03-12T05:52:28.192Z,1.00
2023-03-12T05:55:18.015Z,0.90
2023-03-12T05:58:09.354Z,1.00
2023-03-12T06:00:59.105Z,0.90
2023-03-12T06:03:50.408Z,0.80
2023-03-12T06:06:40.371Z,1.00
2023-03-12T06:09:29.843Z,1.20
2023-03-12T06:12:19.872Z,1.20
2023-03-12T06:15:10.333Z,1.20
2023-03-12T06:18:00.222Z,1.00
2023-03-12T06:20:51.128Z,0.90
2023-03-12T06:23:41.605Z,0.90
2023-03-12T06:26:31.131Z,0.90
2023-03-12T06:29:20.965Z,0.80
2023-03-12T06:32:14.023Z,1.00
2023-03-12T06:35:05.405Z,1.20
2023-03-12T06:37:56.703Z,2.20
2023-03-12T06:40:46.626Z,2.40
2023-03-12T06:43:37.818Z,2.10
2023-03-12T06:46:28.496Z,2.20
2023-03-12T06:49:18.736Z,2.70
2023-03-12T06:52:09.021Z,3.20
2023-03-12T06:55:00.009Z,3.00
2023-03-12T06:57:49.510Z,2.90
2023-03-12T07:00:40.800Z,2.50
2023-03-12T07:03:31.261Z,2.50
2023-03-12T07:06:23.873Z,2.30
2023-03-12T07:09:13.726Z,2.20
2023-03-12T07:12:05.428Z,1.90
2023-03-12T07:14:54.996Z,1.10
2023-03-12T07:17:45.263Z,0.60
2023-03-12T07:20:35.672Z,0.30
2023-03-12T07:23:26.310Z,0.40
2023-03-12T07:26:16.030Z,0.40
2023-03-12T07:29:08.196Z,0.40
2023-03-12T07:31:58.613Z,0.30
2023-03-12T07:34:50.097Z,0.40
2023-03-12T07:37:43.431Z,0.20
2023-03-12T07:40:34.766Z,0.40
2023-03-12T07:43:25.575Z,1.00
2023-03-12T07:46:17.003Z,1.00
2023-03-12T07:49:06.583Z,1.00
2023-03-12T07:51:56.164Z,0.80
2023-03-12T07:54:45.942Z,0.80
2023-03-12T07:57:35.686Z,1.10
2023-03-12T08:00:25.600Z,1.20
2023-03-12T08:03:18.709Z,1.30
2023-03-12T08:06:08.979Z,1.90
2023-03-12T08:08:58.392Z,2.40
2023-03-12T08:11:49.018Z,2.40
2023-03-12T08:14:38.801Z,2.30
2023-03-12T08:17:30.034Z,2.50
2023-03-12T08:20:21.544Z,2.40
2023-03-12T08:23:11.611Z,2.70
2023-03-12T08:26:01.013Z,3.10
2023-03-12T08:29:00.671Z,3.30
2023-03-12T08:32:03.720Z,3.90
2023-03-12T08:34:55.147Z,4.30
2023-03-12T08:37:46.160Z,3.40
2023-03-12T08:40:37.096Z,2.90
2023-03-12T08:43:29.475Z,2.60
2023-03-12T08:46:19.540Z,1.70
2023-03-12T08:49:09.037Z,0.40
2023-03-12T08:51:58.684Z,0.20
2023-03-12T08:54:49.830Z,0.10
2023-03-12T08:57:40.459Z,0.10
2023-03-12T09:00:35.537Z,0.20
2023-03-12T09:03:26.687Z,0.40
2023-03-12T09:06:18.234Z,0.40
2023-03-12T09:09:09.393Z,0.50
2023-03-12T09:12:01.351Z,0.50
2023-03-12T09:15:07.752Z,1.20
2023-03-12T09:17:57.608Z,1.50
2023-03-12T09:20:47.075Z,2.40
2023-03-12T09:23:36.927Z,2.80
2023-03-12T09:26:26.311Z,2.70
2023-03-12T09:29:18.833Z,2.40
2023-03-12T09:32:09.876Z,2.30
2023-03-12T09:35:00.123Z,2.20
2023-03-12T09:37:51.669Z,2.90
2023-03-12T09:40:41.663Z,3.70
2023-03-12T09:43:39.303Z,4.10
2023-03-12T09:46:35.586Z,3.60
2023-03-12T09:49:39.700Z,2.90
2023-03-12T09:52:34.512Z,3.30
2023-03-12T09:55:25.112Z,3.50
2023-03-12T09:58:19.170Z,3.50
2023-03-12T10:01:21.618Z,3.40
2023-03-12T10:04:24.756Z,3.00
2023-03-12T10:07:19.711Z,2.80
2023-03-12T10:10:22.894Z,3.70
2023-03-12T10:13:27.471Z,4.30
2023-03-12T10:16:30.053Z,4.20
2023-03-12T10:19:33.430Z,4.10
2023-03-12T10:22:42.313Z,3.90
2023-03-12T10:25:43.722Z,3.80
2023-03-12T10:28:39.373Z,3.10
2023-03-12T10:31:37.471Z,2.80
2023-03-12T10:34:43.788Z,2.30
2023-03-12T10:37:55.867Z,1.10
2023-03-12T10:40:45.842Z,0.60
2023-03-12T10:43:37.494Z,0.40
2023-03-12T10:46:44.379Z,0.20
2023-03-12T10:49:37.274Z,0.00
2023-03-12T10:52:27.105Z,-0.10
2023-03-12T10:55:28.802Z,-0.20
2023-03-12T10:58:26.651Z,0.00
2023-03-12T11:01:22.961Z,0.20
2023-03-12T11:04:20.074Z,0.50
2023-03-12T11:07:21.749Z,0.60
2023-03-12T11:10:24.833Z,0.50
2023-03-12T11:13:35.807Z,0.40
2023-03-12T11:16:32.203Z,0.70
2023-03-12T11:19:32.935Z,0.70
2023-03-12T11:22:35.482Z,0.50
2023-03-12T11:25:27.442Z,0.50
2023-03-12T11:28:24.615Z,0.40
2023-03-12T11:31:23.870Z,0.30
2023-03-12T11:34:22.657Z,0.40
2023-03-12T11:37:17.152Z,0.30
2023-03-12T11:40:20.982Z,0.60
2023-03-12T11:43:43.144Z,0.60
2023-03-12T11:46:47.445Z,1.00
2023-03-12T11:49:59.054Z,0.90
2023-03-12T11:53:01.780Z,0.90
2023-03-12T11:56:03.302Z,0.80
2023-03-12T11:59:20.229Z,0.80
2023-03-12T12:02:38.392Z,0.80
2023-03-12T12:05:38.236Z,0.80
2023-03-12T12:09:00.632Z,0.90
2023-03-12T12:12:05.501Z,1.00
2023-03-12T12:15:06.044Z,0.70
2023-03-12T12:18:11.622Z,0.80
2023-03-12T12:21:08.519Z,0.70
2023-03-12T12:24:05.951Z,0.70
2023-03-12T12:27:02.545Z,0.70
2023-03-12T12:30:15.393Z,0.80
2023-03-12T12:33:20.115Z,1.00
2023-03-12T12:36:12.686Z,1.10
2023-03-12T12:39:07.863Z,1.20
2023-03-12T12:42:04.034Z,0.90
2023-03-12T12:44:58.611Z,0.90
2023-03-12T12:47:52.003Z,0.80
2023-03-12T12:50:42.367Z,0.70
2023-03-12T12:53:40.241Z,0.60
2023-03-12T12:56:36.807Z,0.70
2023-03-12T12:59:38.843Z,0.70
2023-03-12T13:02:34.623Z,0.80
2023-03-12T13:05:30.027Z,0.80
2023-03-12T13:08:38.146Z,0.90
2023-03-12T13:11:33.824Z,0.90
2023-03-12T13:14:42.457Z,1.00
2023-03-12T13:17:35.861Z,0.90
2023-03-12T13:20:31.557Z,1.00
2023-03-12T13:23:34.189Z,1.00
2023-03-12T13:26:32.758Z,1.20
2023-03-12T13:29:37.739Z,1.50
2023-03-12T13:33:11.606Z,1.70
2023-03-12T13:36:13.503Z,2.00
2023-03-12T13:39:22.231Z,2.40
2023-03-12T13:42:37.602Z,2.50
2023-03-12T13:45:31.956Z,2.70
2023-03-12T13:48:24.808Z,2.60
2023-03-12T13:51:19.595Z,2.10
2023-03-12T13:54:16.132Z,1.60
2023-03-12T13:57:13.030Z,1.30
2023-03-12T14:00:06.619Z,1.10
2023-03-12T14:03:02.724Z,1.00
2023-03-12T14:05:59.438Z,0.90
2023-03-12T14:09:11.701Z,0.80
2023-03-12T14:12:08.138Z,0.50
2023-03-12T14:15:21.692Z,0.40
2023-03-12T14:18:19.407Z,0.30
2023-03-12T14:21:16.959Z,0.40
2023-03-12T14:24:14.443Z,0.30
2023-03-12T14:27:09.606Z,0.30
2023-03-12T14:30:04.356Z,0.30
2023-03-12T14:33:01.322Z,0.30
2023-03-12T14:35:56.409Z,0.20
2023-03-12T14:38:52.128Z,0.20
2023-03-12T14:41:48.658Z,0.20
2023-03-12T14:44:41.898Z,0.10
2023-03-12T14:47:32.288Z,0.10
2023-03-12T14:50:30.374Z,0.10
2023-03-12T14:53:25.295Z,0.10
2023-03-12T14:56:25.136Z,0.10
2023-03-12T14:59:28.299Z,0.00
2023-03-12T15:02:23.004Z,0.20
2023-03-12T15:05:19.558Z,0.10
2023-03-12T15:08:11.125Z,0.10
2023-03-12T15:11:03.128Z,0.10
2023-03-12T15:13:56.922Z,0.20
2023-03-12T15:16:48.059Z,0.10
2023-03-12T15:19:41.181Z,0.00
2023-03-12T15:22:31.146Z,0.00
2023-03-12T15:25:27.217Z,-0.10
2023-03-12T15:28:30.245Z,-0.10
2023-03-12T15:31:23.046Z,-0.20
2023-03-12T15:34:18.153Z,-0.20
2023-03-12T15:37:25.273Z,-0.30
2023-03-12T15:40:25.014Z,-0.20
2023-03-12T15:43:19.559Z,-0.30
2023-03-12T15:46:15.235Z,-0.40
2023-03-12T15:49:08.406Z,-0.40
2023-03-12T15:52:07.718Z,-0.40
2023-03-12T15:55:09.999Z,-0.50
2023-03-12T15:58:01.518Z,-0.60
2023-03-12T16:00:54.394Z,-0.70
2023-03-12T16:03:46.472Z,-0.70
2023-03-12T16:06:39.744Z,-0.70
2023-03-12T16:09:34.644Z,-0.80
2023-03-12T16:12:26.596Z,-0.80
2023-03-12T16:15:17.853Z,-0.90
2023-03-12T16:18:14.293Z,-0.90
2023-03-12T16:21:04.811Z,-1.00
2023-03-12T16:23:58.407Z,-0.90
2023-03-12T16:26:54.621Z,-1.10
2023-03-12T16:29:46.414Z,-1.10
2023-03-12T16:32:36.768Z,-1.20
2023-03-12T16:35:32.733Z,-1.10
2023-03-12T16:38:23.310Z,-1.20
2023-03-12T16:41:18.361Z,-1.10
2023-03-12T16:44:15.510Z,-1.30
2023-03-12T16:47:06.406Z,-1.40
2023-03-12T16:49:57.865Z,-1.40
2023-03-12T16:52:48.614Z,-1.40
2023-03-12T16:55:48.944Z,-1.50
2023-03-12T16:58:43.710Z,-1.60
2023-03-12T17:01:36.180Z,-1.70
2023-03-12T17:04:34.598Z,-1.70
2023-03-12T17:07:25.234Z,-1.60
2023-03-12T17:10:17.824Z,-1.90
2023-03-12T17:13:09.205Z,-2.00
2023-03-12T17:16:01.398Z,-2.10
2023-03-12T17:18:52.848Z,-2.20
2023-03-12T17:21:48.065Z,-2.10
2023-03-12T17:24:40.745Z,-2.40
2023-03-12T17:27:31.992Z,-2.40
2023-03-12T17:30:25.149Z,-2.30
2023-03-12T17:33:20.863Z,-2.40
2023-03-12T17:36:13.209Z,-2.60
2023-03-12T17:39:04.997Z,-2.60
2023-03-12T17:41:56.814Z,-2.40
2023-03-12T17:44:47.132Z,-2.60
2023-03-12T17:47:38.945Z,-2.60
2023-03-12T17:50:33.538Z,-2.60
2023-03-12T17:53:24.511Z,-2.60
2023-03-12T17:56:18.793Z,-2.90
2023-03-12T17:59:11.066Z,-2.70
2023-03-12T18:02:03.038Z,-3.00
2023-03-12T18:04:59.735Z,-2.80
2023-03-12T18:07:53.085Z,-2.90
2023-03-12T18:10:46.503Z,-2.90
2023-03-12T18:13:39.852Z,-3.10
2023-03-12T18:16:32.369Z,-3.00
2023-03-12T18:19:28.346Z,-3.10
2023-03-12T18:22:21.617Z,-3.00
2023-03-12T18:25:20.966Z,-3.10
2023-03-12T18:28:11.774Z,-3.10
2023-03-12T18:31:03.406Z,-3.20
2023-03-12T18:33:57.448Z,-3.20
2023-03-12T18:36:48.754Z,-3.10
2023-03-12T18:39:39.898Z,-3.50
2023-03-12T18:42:32.313Z,-3.40
2023-03-12T18:45:24.255Z,-3.30
2023-03-12T18:48:16.438Z,-3.10
2023-03-12T18:51:07.627Z,-3.40
2023-03-12T18:53:59.228Z,-3.20
2023-03-12T18:56:52.288Z,-3.20
2023-03-12T18:59:48.998Z,-3.40
2023-03-12T19:02:39.237Z,-3.10
2023-03-12T19:05:30.317Z,-3.10
2023-03-12T19:08:22.375Z,-3.10
2023-03-12T19:11:15.261Z,-3.20
2023-03-12T19:14:07.409Z,-3.20
2023-03-12T19:17:00.840Z,-3.10
2023-03-12T19:19:55.035Z,-3.30
2023-03-12T19:22:46.282Z,-3.10
2023-03-12T19:25:38.013Z,-3.00
2023-03-12T19:28:30.409Z,-3.00
2023-03-12T19:31:21.267Z,-3.00
2023-03-12T19:34:16.077Z,-3.30
2023-03-12T19:37:07.596Z,-3.10
2023-03-12T19:39:59.311Z,-3.20
2023-03-12T19:42:52.720Z,-2.90
2023-03-12T19:45:46.502Z,-3.20
2023-03-12T19:48:38.555Z,-3.00
2023-03-12T19:51:31.775Z,-3.00
2023-03-12T19:54:23.557Z,-3.00
2023-03-12T19:57:15.093Z,-3.10
2023-03-12T20:00:10.616Z,-2.90
2023-03-12T20:03:02.109Z,-3.10
2023-03-12T20:05:56.251Z,-3.00
2023-03-12T20:08:50.955Z,-3.30
2023-03-12T20:11:42.683Z,-2.80
2023-03-12T20:14:36.274Z,-2.80
2023-03-12T20:17:27.127Z,-2.70
2023-03-12T20:20:18.925Z,-2.80
2023-03-12T20:23:11.163Z,-2.70
2023-03-12T20:26:06.670Z,-2.70
2023-03-12T20:28:59.499Z,-2.70
2023-03-12T20:31:55.875Z,-2.80
2023-03-12T20:34:49.746Z,-2.70
2023-03-12T20:37:42.516Z,-2.80
2023-03-12T20:40:33.659Z,-2.90
2023-03-12T20:43:29.020Z,-2.90
2023-03-12T20:46:21.703Z,-2.90
2023-03-12T20:49:12.344Z,-3.00
2023-03-12T20:52:03.891Z,-2.80
2023-03-12T20:54:55.388Z,-3.00
2023-03-12T20:57:46.459Z,-3.20
2023-03-12T21:00:38.783Z,-3.20
2023-03-12T21:03:31.352Z,-3.20
2023-03-12T21:06:22.708Z,-3.20
2023-03-12T21:09:14.151Z,-3.50
2023-03-12T21:12:06.410Z,-3.50
2023-03-12T21:15:04.707Z,-3.50
2023-03-12T21:18:05.862Z,-3.60
2023-03-12T21:20:55.810Z,-3.70
2023-03-12T21:23:47.126Z,-3.50
2023-03-12T21:26:37.837Z,-3.60
2023-03-12T21:29:27.972Z,-3.60
2023-03-12T21:32:18.018Z,-3.60
2023-03-12T21:35:10.848Z,-3.60
2023-03-12T21:38:01.098Z,-3.40
2023-03-12T21:40:51.644Z,-3.60
2023-03-12T21:43:42.346Z,-3.80
2023-03-12T21:46:32.437Z,-3.60
2023-03-12T21:49:22.374Z,-3.90
2023-03-12T21:52:14.204Z,-3.90
2023-03-12T21:55:03.833Z,-3.80
2023-03-12T21:57:53.395Z,-4.10
2023-03-12T22:00:42.904Z,-4.00
2023-03-12T22:03:32.385Z,-4.10
2023-03-12T22:06:27.665Z,-4.20
2023-03-12T22:09:19.281Z,-4.30
2023-03-12T22:12:09.226Z,-4.30
2023-03-12T22:14:59.051Z,-4.50
2023-03-12T22:17:48.414Z,-4.60
2023-03-12T22:20:37.805Z,-4.70
2023-03-12T22:23:27.814Z,-4.50
2023-03-12T22:26:19.254Z,-4.70
2023-03-12T22:29:08.852Z,-4.70
2023-03-12T22:31:58.694Z,-4.70
2023-03-12T22:34:48.264Z,-4.70
2023-03-12T22:37:37.851Z,-4.90
2023-03-12T22:40:28.560Z,-4.90
2023-03-12T22:43:20.055Z,-4.80
2023-03-12T22:46:09.551Z,-4.70
2023-03-12T22:49:02.009Z,-4.80
2023-03-12T22:51:51.450Z,-4.50
2023-03-12T22:54:41.462Z,-4.50
2023-03-12T22:57:31.334Z,-4.50
2023-03-12T23:00:24.316Z,-4.30
2023-03-12T23:03:14.233Z,-4.20
2023-03-12T23:06:04.508Z,-4.40
2023-03-12T23:08:55.055Z,-4.40
2023-03-12T23:11:44.731Z,-4.40
2023-03-12T23:14:35.893Z,-4.30
2023-03-12T23:17:26.727Z,-4.60
2023-03-12T23:20:16.521Z,-4.60
2023-03-12T23:23:06.044Z,-4.60
2023-03-12T23:25:56.557Z,-4.50
2023-03-12T23:28:47.620Z,-4.80
2023-03-12T23:31:37.277Z,-4.80
2023-03-12T23:34:28.488Z,-4.90
2023-03-12T23:37:18.323Z,-4.80
2023-03-12T23:40:10.869Z,-4.90
2023-03-12T23:43:00.244Z,-4.80
2023-03-12T23:45:57.158Z,-4.90
2023-03-12T23:48:47.309Z,-4.90
2023-03-12T23:51:40.699Z,-5.00
2023-03-12T23:54:30.144Z,-4.90
2023-03-12T23:57:19.920Z,-5.00
